METAR Data
IDs: Format: Raw Decoded Include TAF

Data at: 0451 UTC 26 Sep 2018

KCBF 260435Z AUTO 26005KT 10SM CLR 10/09 A3016 RMK AO2
KCBF 260415Z AUTO 28005KT 10SM CLR 11/09 A3016 RMK AO2
KCBF 260355Z AUTO 29004KT 10SM CLR 11/09 A3015 RMK AO2
KCBF 260335Z AUTO 30005KT 10SM CLR 11/10 A3016 RMK AO2
KCBF 260315Z AUTO 30005KT 10SM CLR 11/10 A3015 RMK AO2
KCBF 260255Z AUTO 29006KT 10SM CLR 12/10 A3015 RMK AO2
KCBF 260235Z AUTO 29006KT 10SM CLR 12/10 A3014 RMK AO2
KCBF 260215Z AUTO 29005KT 10SM CLR 12/09 A3014 RMK AO2
KCBF 260155Z AUTO 31005KT 10SM CLR 12/09 A3013 RMK AO2
KCBF 260135Z AUTO 30005KT 10SM CLR 12/10 A3013 RMK AO2
KCBF 260115Z AUTO 31005KT 10SM CLR 12/10 A3012 RMK AO2
KCBF 260055Z AUTO 31006KT 10SM CLR 12/10 A3011 RMK AO2
KCBF 260035Z AUTO 31005KT 10SM CLR 13/10 A3010 RMK AO2
KCBF 260015Z AUTO 33004KT 10SM CLR 13/10 A3009 RMK AO2
KCBF 252355Z AUTO 33005KT 10SM CLR 15/10 A3008 RMK AO2
KCBF 252335Z AUTO 34007G12KT 300V010 10SM CLR 15/10 A3007 RMK AO2
KCBF 252315Z AUTO 34009KT 10SM SCT047 16/10 A3007 RMK AO2
KCBF 252255Z AUTO 33007G14KT 300V360 10SM BKN048 16/10 A3006 RMK AO2
KCBF 252235Z AUTO 33014G20KT 10SM CLR 17/09 A3005 RMK AO2
KCBF 252215Z AUTO 32015G23KT 10SM FEW039 17/10 A3005 RMK AO2
KCBF 252155Z AUTO 31011G22KT 10SM FEW028 FEW035 BKN041 18/10 A3004 RMK AO2
KCBF 252135Z AUTO 34013G22KT 10SM FEW028 FEW035 BKN043 18/12 A3004 RMK AO2
KCBF 252115Z AUTO 33013G20KT 10SM FEW027 FEW037 FEW120 18/11 A3003 RMK AO2
KCBF 252055Z AUTO 32013G20KT 10SM FEW022 SCT027 BKN120 17/12 A3003 RMK AO2
KCBF 252035Z AUTO 34013G20KT 10SM SCT020 BKN025 BKN029 17/12 A3002 RMK AO2
KCBF 252015Z AUTO 33012KT 10SM SCT015 BKN022 OVC032 16/13 A3002 RMK AO2
KCBF 251955Z AUTO 33009G21KT 10SM FEW009 OVC015 14/13 A3002 RMK AO2
KCBF 251935Z AUTO 34009G15KT 10SM BKN009 OVC013 14/14 A3001 RMK AO2
KCBF 251915Z AUTO 33011G18KT 7SM BKN009 OVC013 14/14 A3001 RMK AO2
KCBF 251855Z AUTO 34011G18KT 7SM OVC011 14/13 A3000 RMK AO2
KCBF 251835Z AUTO 33014G22KT 10SM OVC012 14/13 A3000 RMK AO2
KCBF 251815Z AUTO 33013G24KT 10SM OVC012 13/13 A3000 RMK AO2
KCBF 251755Z AUTO 33013G19KT 10SM BKN012 OVC016 13/13 A2999 RMK AO2
KCBF 251735Z AUTO 33012G18KT 10SM BKN010 OVC014 13/13 A2999 RMK AO2
KCBF 251715Z AUTO 34010G17KT 10SM FEW009 BKN014 OVC070 14/13 A2999 RMK AO2
KCBF 251655Z AUTO 33008KT 10SM BKN009 BKN013 OVC070 14/14 A2998 RMK AO2
KCBF 251635Z AUTO 33008G14KT 10SM BKN008 BKN013 OVC070 13/13 A2997 RMK AO2
KCBF 251615Z AUTO 33006G15KT 7SM -DZ BKN007 BKN015 BKN025 13/13 A2997 RMK AO2
KCBF 251555Z AUTO 33007G17KT 310V010 1 1/2SM RA BKN006 BKN012 BKN025 13/13 A2994 RMK AO2
KCBF 251535Z AUTO 33011G19KT 8SM -DZ SCT004 BKN010 OVC013 13/13 A2996 RMK AO2
KCBF 251515Z AUTO 34007G13KT 9SM SCT009 BKN012 BKN034 13/13 A2994 RMK AO2
KCBF 251455Z AUTO 34012G18KT 3SM -DZ FEW005 BKN008 SCT023 14/14 A2993 RMK AO2
KCBF 251435Z AUTO 35010G17KT 1SM -RA SCT003 BKN006 OVC044 14/14 A2989 RMK AO2
KCBF 251415Z AUTO 32011G24KT 1/2SM +RA OVC003 15/15 A2991 RMK AO2
KCBF 251355Z AUTO VRB06KT 1/2SM RA OVC003 15/15 A2986 RMK AO2 P0001
KCBF 251335Z AUTO 32009G15KT 2 1/2SM BR OVC008 15/15 A2985 RMK AO2
KCBF 251315Z AUTO 00000KT 10SM OVC010 16/15 A2984 RMK AO2
KCBF 251255Z AUTO 05003KT 10SM OVC011 16/15 A2983 RMK AO2
KCBF 251235Z AUTO 03004KT 10SM OVC011 15/15 A2984 RMK AO2
KCBF 251215Z AUTO 00000KT 10SM OVC013 15/15 A2985 RMK AO2
KCBF 251155Z AUTO 36004KT 10SM OVC014 16/15 A2985 RMK AO2
KCBF 251135Z AUTO 02005KT 10SM OVC014 16/15 A2986 RMK AO2
KCBF 251115Z AUTO 02005KT 10SM OVC015 16/15 A2985 RMK AO2
KCBF 251055Z AUTO 02005KT 10SM OVC016 15/15 A2985 RMK AO2
KCBF 251035Z AUTO 05005KT 10SM OVC017 15/15 A2985 RMK AO2
KCBF 251015Z AUTO 04006KT 10SM OVC019 15/15 A2986 RMK AO2
KCBF 250955Z AUTO 01006KT 10SM OVC020 15/15 A2987 RMK AO2
KCBF 250935Z AUTO 34004KT 10SM OVC021 15/15 A2986 RMK AO2
KCBF 250915Z AUTO 34004KT 10SM OVC022 15/15 A2987 RMK AO2
KCBF 250855Z AUTO 33004KT 10SM OVC024 16/15 A2988 RMK AO2
KCBF 250835Z AUTO VRB04KT 10SM OVC026 16/15 A2987 RMK AO2
KCBF 250815Z AUTO 35005G10KT 10SM OVC026 16/15 A2988 RMK AO2
KCBF 250735Z AUTO 01007KT 10SM OVC026 17/15 A2988 RMK AO2
KCBF 250715Z AUTO 34005G11KT 10SM OVC027 17/16 A2989 RMK AO2
KCBF 250655Z AUTO 35008KT 10SM OVC028 17/16 A2988 RMK AO2
KCBF 250635Z AUTO 34005KT 10SM OVC027 17/16 A2988 RMK AO2
KCBF 250615Z AUTO 35007KT 10SM OVC028 18/16 A2987 RMK AO2
KCBF 250555Z AUTO 35008KT 10SM OVC030 18/16 A2987 RMK AO2
KCBF 250535Z AUTO 35006KT 10SM OVC032 18/16 A2987 RMK AO2
KCBF 250515Z AUTO 36006KT 10SM OVC034 18/16 A2987 RMK AO2
KCBF 250455Z AUTO VRB05KT 10SM BKN034 BKN041 18/16 A2987 RMK AO2
KCBF 250435Z AUTO 35007KT 10SM FEW042 FEW075 17/16 A2987 RMK AO2
KCBF 250415Z AUTO 03009KT 10SM FEW044 SCT070 18/16 A2987 RMK AO2
KCBF 250355Z AUTO 01007KT 10SM SCT044 SCT050 SCT065 18/16 A2987 RMK AO2
KCBF 250335Z AUTO 02007KT 10SM SCT041 OVC047 19/17 A2987 RMK AO2
KCBF 250315Z AUTO 01007KT 10SM BKN040 OVC047 19/17 A2987 RMK AO2
KCBF 250255Z AUTO 35007G15KT 10SM BKN042 OVC055 19/17 A2987 RMK AO2
KCBF 250235Z AUTO 35006KT 10SM BKN044 OVC055 20/17 A2986 RMK AO2
KCBF 250215Z AUTO 33008KT 10SM SCT048 OVC055 21/18 A2985 RMK AO2
KCBF 250155Z AUTO 00000KT 10SM BKN050 21/18 A2984 RMK AO2
KCBF 250135Z AUTO 00000KT 10SM BKN046 OVC050 21/18 A2983 RMK AO2
KCBF 250115Z AUTO 00000KT 10SM OVC042 22/17 A2982 RMK AO2
KCBF 250055Z AUTO 00000KT 10SM SCT043 22/17 A2981 RMK AO2
KCBF 250035Z AUTO 15003KT 10SM CLR 22/17 A2980 RMK AO2
KCBF 250015Z AUTO 19003KT 10SM CLR 23/17 A2980 RMK AO2
KCBF 242355Z AUTO 00000KT 10SM CLR 24/17 A2980 RMK AO2
KCBF 242335Z AUTO 19004KT 10SM CLR 24/17 A2980 RMK AO2
KCBF 242315Z AUTO 10SM CLR 24/17 A2980 RMK AO2
KCBF 242255Z AUTO 10SM CLR 25/17 A2980 RMK AO2
KCBF 242235Z AUTO 10SM FEW039 25/17 A2980 RMK AO2
KCBF 242215Z AUTO 22011KT 10SM SCT035 SCT041 SCT047 25/18 A2980 RMK AO2
KCBF 242155Z AUTO 21006G12KT 10SM FEW034 FEW040 FEW046 25/18 A2980 RMK AO2
KCBF 242135Z AUTO 28005KT 10SM CLR 25/19 A2981 RMK AO2
KCBF 242115Z AUTO 24007KT 10SM FEW043 25/19 A2981 RMK AO2
KCBF 242055Z AUTO 23007G13KT 10SM SCT043 BKN049 26/18 A2982 RMK AO2
KCBF 242035Z AUTO 20007KT 10SM BKN042 OVC048 25/18 A2982 RMK AO2
KCBF 242015Z AUTO 22005G10KT 10SM BKN041 25/17 A2982 RMK AO2
KCBF 241955Z AUTO 18007KT 10SM BKN041 25/18 A2983 RMK AO2
KCBF 241935Z AUTO 17006G14KT 10SM SCT039 24/17 A2983 RMK AO2
KCBF 241915Z AUTO 18011KT 160V220 10SM FEW038 25/17 A2984 RMK AO2
KCBF 241855Z AUTO 22012G17KT 10SM CLR 25/17 A2985 RMK AO2
KCBF 241835Z AUTO 20010G15KT 10SM CLR 24/17 A2986 RMK AO2
KCBF 241815Z AUTO 19012KT 10SM CLR 24/17 A2986 RMK AO2
KCBF 241755Z AUTO 20014KT 10SM CLR 24/17 A2987 RMK AO2
KCBF 241735Z AUTO 19010G19KT 10SM CLR 23/17 A2987 RMK AO2
KCBF 241715Z AUTO 18013G20KT 10SM CLR 23/17 A2988 RMK AO2
KCBF 241655Z AUTO 19018G23KT 10SM FEW025 22/17 A2987 RMK AO2